createdAt,value
2023-02-18T00:01:53.269Z,98956.01
2023-02-18T00:04:55.198Z,98955.51
2023-02-18T00:07:56.867Z,98960.46
2023-02-18T00:10:58.422Z,98974.90
2023-02-18T00:14:01.394Z,98968.54
2023-02-18T00:17:02.968Z,98967.45
2023-02-18T00:20:06.798Z,98963.63
2023-02-18T00:23:08.506Z,98962.90
2023-02-18T00:26:15.318Z,98965.30
2023-02-18T00:29:16.957Z,98959.38
2023-02-18T00:32:18.757Z,98960.43
2023-02-18T00:35:20.202Z,98961.33
2023-02-18T00:38:21.710Z,98952.66
2023-02-18T00:41:24.805Z,98955.67
2023-02-18T00:44:26.411Z,98959.47
2023-02-18T00:47:27.957Z,98953.45
2023-02-18T00:50:29.483Z,98950.45
2023-02-18T00:53:31.454Z,98948.63
2023-02-18T00:56:33.260Z,98952.68
2023-02-18T00:59:34.778Z,98945.70
2023-02-18T01:02:36.719Z,98950.88
2023-02-18T01:05:39.735Z,98954.30
2023-02-18T01:08:41.664Z,98956.97
2023-02-18T01:11:43.262Z,98968.41
2023-02-18T01:14:44.857Z,98969.19
2023-02-18T01:17:46.419Z,98988.71
2023-02-18T01:20:48.447Z,99002.80
2023-02-18T01:23:50.197Z,99042.97
2023-02-18T01:26:52.290Z,99048.92
2023-02-18T01:29:53.987Z,99049.73
2023-02-18T01:32:59.239Z,99047.27
2023-02-18T01:36:00.933Z,99046.34
2023-02-18T01:39:02.620Z,99042.95
2023-02-18T01:42:04.328Z,99044.02
2023-02-18T01:45:34.430Z,99033.58
2023-02-18T01:49:01.024Z,99028.63
2023-02-18T01:52:07.112Z,99029.80
2023-02-18T01:55:08.818Z,99020.73
2023-02-18T01:58:11.775Z,99016.65
2023-02-18T02:01:13.485Z,99022.00
2023-02-18T02:04:15.161Z,99017.66
2023-02-18T02:07:18.644Z,99017.99
2023-02-18T02:10:20.680Z,99018.85
2023-02-18T02:13:50.150Z,99022.71
2023-02-18T02:17:00.294Z,99036.98
2023-02-18T02:20:30.492Z,99029.61
2023-02-18T02:24:02.791Z,99027.73
2023-02-18T02:27:21.792Z,99030.05
2023-02-18T02:30:46.843Z,99033.44
2023-02-18T02:34:16.019Z,99038.31
2023-02-18T02:37:37.281Z,99040.80
2023-02-18T02:40:47.436Z,99041.18
2023-02-18T02:44:33.692Z,99044.84
2023-02-18T02:47:59.724Z,99052.73
2023-02-18T02:51:08.056Z,99060.15
2023-02-18T02:54:17.436Z,99067.09
2023-02-18T02:57:19.049Z,99076.20
2023-02-18T03:00:22.569Z,99079.82
2023-02-18T03:03:52.459Z,99086.65
2023-02-18T03:07:03.110Z,99085.95
2023-02-18T03:10:28.055Z,99103.46
2023-02-18T03:14:18.389Z,99110.92
2023-02-18T03:17:30.864Z,99112.47
2023-02-18T03:20:36.347Z,99110.67
2023-02-18T03:23:42.454Z,99108.12
2023-02-18T03:26:50.187Z,99123.00
2023-02-18T03:29:56.780Z,99129.20
2023-02-18T03:33:01.519Z,99136.20
2023-02-18T03:36:03.578Z,99130.71
2023-02-18T03:39:08.794Z,99132.26
2023-02-18T03:42:13.620Z,99139.83
2023-02-18T03:45:15.202Z,99142.90
2023-02-18T03:48:16.776Z,99145.97
2023-02-18T03:51:18.383Z,99154.52
2023-02-18T03:54:19.984Z,99160.32
2023-02-18T03:57:22.203Z,99155.77
2023-02-18T04:00:26.985Z,99167.17
2023-02-18T04:03:28.462Z,99165.52
2023-02-18T04:06:30.577Z,99171.58
2023-02-18T04:09:32.136Z,99177.52
2023-02-18T04:12:34.068Z,99173.22
2023-02-18T04:15:35.705Z,99172.56
2023-02-18T04:18:37.464Z,99175.46
2023-02-18T04:21:38.906Z,99185.15
2023-02-18T04:24:40.512Z,99183.35
2023-02-18T04:27:42.082Z,99181.77
2023-02-18T04:30:44.788Z,99188.23
2023-02-18T04:33:46.421Z,99189.73
2023-02-18T04:36:48.236Z,99185.49
2023-02-18T04:39:49.776Z,99190.22
2023-02-18T04:42:51.529Z,99189.65
2023-02-18T04:45:53.455Z,99190.25
2023-02-18T04:48:55.015Z,99188.73
2023-02-18T04:51:56.790Z,99189.80
2023-02-18T04:54:58.327Z,99187.21
2023-02-18T04:58:00.096Z,99188.05
2023-02-18T05:01:03.179Z,99187.20
2023-02-18T05:04:04.830Z,99191.85
2023-02-18T05:07:06.279Z,99193.22
2023-02-18T05:10:09.804Z,99190.78
2023-02-18T05:13:11.452Z,99192.96
2023-02-18T05:16:13.092Z,99187.35
2023-02-18T05:19:15.607Z,99193.91
2023-02-18T05:22:17.333Z,99198.31
2023-02-18T05:25:18.849Z,99201.67
2023-02-18T05:28:20.478Z,99202.13
2023-02-18T05:31:22.067Z,99197.13
2023-02-18T05:34:23.705Z,99207.23
2023-02-18T05:37:25.771Z,99199.99
2023-02-18T05:40:27.397Z,99209.76
2023-02-18T05:43:28.983Z,99216.73
2023-02-18T05:46:30.531Z,99218.45
2023-02-18T05:49:33.405Z,99222.52
2023-02-18T05:52:35.147Z,99222.08
2023-02-18T05:55:36.877Z,99233.70
2023-02-18T05:58:38.351Z,99236.36
2023-02-18T06:01:40.289Z,99236.74
2023-02-18T06:04:41.939Z,99239.30
2023-02-18T06:07:43.448Z,99241.48
2023-02-18T06:10:45.099Z,99246.97
2023-02-18T06:13:47.068Z,99249.05
2023-02-18T06:16:48.826Z,99254.19
2023-02-18T06:19:50.358Z,99256.11
2023-02-18T06:22:51.840Z,99255.98
2023-02-18T06:25:53.380Z,99253.04
2023-02-18T06:28:54.867Z,99254.31
2023-02-18T06:31:56.432Z,99243.04
2023-02-18T06:34:58.631Z,99242.55
2023-02-18T06:38:00.267Z,99243.71
2023-02-18T06:41:01.937Z,99238.61
2023-02-18T06:44:03.706Z,99242.55
2023-02-18T06:47:05.353Z,99242.20
2023-02-18T06:50:07.195Z,99247.06
2023-02-18T06:53:09.285Z,99249.44
2023-02-18T06:56:11.373Z,99254.30
2023-02-18T06:59:13.258Z,99254.51
2023-02-18T07:02:15.061Z,99254.54
2023-02-18T07:05:16.992Z,99256.28
2023-02-18T07:08:18.661Z,99257.20
2023-02-18T07:11:20.127Z,99267.45
2023-02-18T07:14:22.082Z,99270.58
2023-02-18T07:17:23.708Z,99272.33
2023-02-18T07:20:26.133Z,99265.23
2023-02-18T07:23:27.916Z,99266.71
2023-02-18T07:26:29.550Z,99276.84
2023-02-18T07:29:31.149Z,99273.99
2023-02-18T07:32:32.708Z,99282.55
2023-02-18T07:35:34.482Z,99277.95
2023-02-18T07:38:36.052Z,99268.52
2023-02-18T07:41:37.576Z,99263.97
2023-02-18T07:44:39.289Z,99265.81
2023-02-18T07:47:40.920Z,99262.07
2023-02-18T07:50:44.489Z,99264.16
2023-02-18T07:53:46.026Z,99261.34
2023-02-18T07:56:47.485Z,99266.20
2023-02-18T07:59:49.084Z,99263.78
2023-02-18T08:02:50.656Z,99261.71
2023-02-18T08:05:52.829Z,99258.94
2023-02-18T08:08:54.488Z,99261.34
2023-02-18T08:11:56.458Z,99266.61
2023-02-18T08:14:58.006Z,99259.80
2023-02-18T08:17:59.488Z,99261.46
2023-02-18T08:21:01.148Z,99263.25
2023-02-18T08:24:02.976Z,99267.83
2023-02-18T08:27:04.747Z,99262.95
2023-02-18T08:30:07.241Z,99275.98
2023-02-18T08:33:10.037Z,99273.40
2023-02-18T08:36:11.619Z,99274.14
2023-02-18T08:39:13.310Z,99277.86
2023-02-18T08:42:15.306Z,99280.94
2023-02-18T08:45:17.035Z,99284.27
2023-02-18T08:48:20.512Z,99286.16
2023-02-18T08:51:23.208Z,99282.95
2023-02-18T08:54:25.001Z,99284.92
2023-02-18T08:57:28.034Z,99283.45
2023-02-18T09:00:29.646Z,99281.30
2023-02-18T09:03:31.406Z,99289.92
2023-02-18T09:06:37.383Z,99282.41
2023-02-18T09:09:38.974Z,99287.65
2023-02-18T09:12:40.448Z,99284.72
2023-02-18T09:15:42.298Z,99282.00
2023-02-18T09:18:45.168Z,99285.70
2023-02-18T09:21:46.748Z,99278.21
2023-02-18T09:24:48.436Z,99285.55
2023-02-18T09:27:50.118Z,99284.31
2023-02-18T09:30:51.747Z,99290.56
2023-02-18T09:34:02.911Z,99286.02
2023-02-18T09:37:04.751Z,99286.46
2023-02-18T09:40:07.027Z,99281.51
2023-02-18T09:43:19.417Z,99287.52
2023-02-18T09:46:34.744Z,99287.81
2023-02-18T09:49:39.419Z,99277.42
2023-02-18T09:52:41.136Z,99281.50
2023-02-18T09:55:43.612Z,99268.29
2023-02-18T09:58:47.307Z,99276.86
2023-02-18T10:01:50.796Z,99272.16
2023-02-18T10:04:52.616Z,99276.38
2023-02-18T10:07:58.780Z,99268.04
2023-02-18T10:11:00.318Z,99261.24
2023-02-18T10:14:01.905Z,99257.89
2023-02-18T10:17:04.327Z,99255.32
2023-02-18T10:20:08.453Z,99241.91
2023-02-18T10:23:11.446Z,99240.30
2023-02-18T10:26:16.786Z,99235.91
2023-02-18T10:29:21.898Z,99228.20
2023-02-18T10:32:27.514Z,99221.20
2023-02-18T10:35:53.085Z,99231.33
2023-02-18T10:39:10.560Z,99225.62
2023-02-18T10:42:32.018Z,99222.92
2023-02-18T10:45:42.706Z,99222.80
2023-02-18T10:48:59.991Z,99222.52
2023-02-18T10:52:03.824Z,99216.27
2023-02-18T10:55:08.301Z,99215.49
2023-02-18T10:58:25.339Z,99215.69
2023-02-18T11:01:27.018Z,99208.13
2023-02-18T11:04:37.161Z,99197.44
2023-02-18T11:07:38.934Z,99193.65
2023-02-18T11:10:42.834Z,99186.39
2023-02-18T11:13:44.422Z,99178.30
2023-02-18T11:16:47.028Z,99180.98
2023-02-18T11:19:54.730Z,99184.83
2023-02-18T11:23:19.693Z,99176.55
2023-02-18T11:26:35.556Z,99175.14
2023-02-18T11:29:37.386Z,99176.36
2023-02-18T11:32:39.120Z,99169.48
2023-02-18T11:35:52.323Z,99166.88
2023-02-18T11:39:04.109Z,99164.66
2023-02-18T11:42:06.491Z,99160.80
2023-02-18T11:45:27.099Z,99158.70
2023-02-18T11:48:28.887Z,99165.87
2023-02-18T11:51:35.436Z,99162.04
2023-02-18T11:54:37.313Z,99157.97
2023-02-18T11:57:42.478Z,99154.02
2023-02-18T12:00:45.369Z,99151.39
2023-02-18T12:03:48.595Z,99146.64
2023-02-18T12:07:01.507Z,99147.79
2023-02-18T12:10:12.482Z,99146.50
2023-02-18T12:13:34.214Z,99146.02
2023-02-18T12:16:54.937Z,99145.15
2023-02-18T12:20:18.378Z,99145.65
2023-02-18T12:23:26.746Z,99142.06
2023-02-18T12:26:53.078Z,99144.45
2023-02-18T12:30:20.938Z,99143.89
2023-02-18T12:33:25.312Z,99138.67
2023-02-18T12:36:42.160Z,99134.15
2023-02-18T12:39:52.953Z,99129.35
2023-02-18T12:43:04.139Z,99117.73
2023-02-18T12:46:22.486Z,99111.71
2023-02-18T12:49:42.826Z,99108.95
2023-02-18T12:53:22.966Z,99104.72
2023-02-18T12:56:30.717Z,99098.52
2023-02-18T13:00:03.876Z,99094.77
2023-02-18T13:03:33.398Z,99087.18
2023-02-18T13:07:00.245Z,99085.96
2023-02-18T13:10:38.950Z,99078.33
2023-02-18T13:13:53.231Z,99068.44
2023-02-18T13:16:57.320Z,99058.80
2023-02-18T13:20:09.955Z,99054.35
2023-02-18T13:23:28.519Z,99049.10
2023-02-18T13:26:31.855Z,99052.23
2023-02-18T13:30:00.772Z,99043.32
2023-02-18T13:33:11.673Z,99044.67
2023-02-18T13:36:41.392Z,99042.75
2023-02-18T13:39:55.458Z,99038.11
2023-02-18T13:43:27.978Z,99021.02
2023-02-18T13:46:29.729Z,99005.02
2023-02-18T13:49:36.495Z,99007.88
2023-02-18T13:52:38.074Z,99007.69
2023-02-18T13:55:39.534Z,99002.92
2023-02-18T13:58:42.971Z,98994.66
2023-02-18T14:01:48.696Z,98995.59
2023-02-18T14:05:16.659Z,98989.94
2023-02-18T14:08:30.379Z,98974.44
2023-02-18T14:11:40.594Z,98970.01
2023-02-18T14:14:42.344Z,98963.83
2023-02-18T14:18:07.969Z,98952.98
2023-02-18T14:21:12.616Z,98940.19
2023-02-18T14:24:44.454Z,98927.52
2023-02-18T14:27:46.478Z,98911.76
2023-02-18T14:30:48.241Z,98911.28
2023-02-18T14:34:11.742Z,98917.18
2023-02-18T14:37:38.170Z,98902.55
2023-02-18T14:40:52.547Z,98882.00
2023-02-18T14:44:16.728Z,98881.61
2023-02-18T14:47:30.221Z,98880.02
2023-02-18T14:50:35.447Z,98866.16
2023-02-18T14:53:43.835Z,98862.24
2023-02-18T14:56:57.832Z,98854.20
2023-02-18T14:59:59.755Z,98846.73
2023-02-18T15:03:02.492Z,98841.00
2023-02-18T15:06:05.275Z,98835.66
2023-02-18T15:09:18.406Z,98820.95
2023-02-18T15:12:25.451Z,98811.95
2023-02-18T15:15:27.320Z,98798.67
2023-02-18T15:18:36.499Z,98800.30
2023-02-18T15:21:42.303Z,98799.92
2023-02-18T15:24:44.265Z,98790.60
2023-02-18T15:27:45.855Z,98785.20
2023-02-18T15:30:47.355Z,98780.04
2023-02-18T15:33:49.086Z,98764.04
2023-02-18T15:36:51.201Z,98759.14
2023-02-18T15:39:52.716Z,98758.69
2023-02-18T15:42:54.221Z,98748.61
2023-02-18T15:45:57.864Z,98744.54
2023-02-18T15:49:00.656Z,98729.95
2023-02-18T15:52:02.970Z,98717.61
2023-02-18T15:55:11.592Z,98708.77
2023-02-18T15:58:16.511Z,98705.48
2023-02-18T16:01:29.060Z,98691.86
2023-02-18T16:04:33.840Z,98669.83
2023-02-18T16:07:51.696Z,98661.43
2023-02-18T16:11:02.958Z,98655.40
2023-02-18T16:14:05.107Z,98649.83
2023-02-18T16:17:12.626Z,98643.73
2023-02-18T16:20:30.826Z,98643.52
2023-02-18T16:23:56.583Z,98640.91
2023-02-18T16:26:59.084Z,98643.28
2023-02-18T16:30:06.783Z,98645.07
2023-02-18T16:33:08.469Z,98643.41
2023-02-18T16:36:13.853Z,98646.54
2023-02-18T16:39:15.340Z,98645.40
2023-02-18T16:42:17.170Z,98634.65
2023-02-18T16:45:19.905Z,98638.28
2023-02-18T16:48:26.826Z,98637.31
2023-02-18T16:51:33.294Z,98625.41
2023-02-18T16:54:34.884Z,98628.59
2023-02-18T16:57:36.403Z,98629.77
2023-02-18T17:00:38.329Z,98627.20
2023-02-18T17:03:39.993Z,98629.11
2023-02-18T17:06:42.866Z,98631.20
2023-02-18T17:09:44.441Z,98624.09
2023-02-18T17:12:45.949Z,98627.99
2023-02-18T17:15:50.361Z,98623.24
2023-02-18T17:18:52.273Z,98644.58
2023-02-18T17:21:53.846Z,98638.98
2023-02-18T17:24:55.555Z,98639.38
2023-02-18T17:27:57.309Z,98629.23
2023-02-18T17:30:59.041Z,98620.06
2023-02-18T17:34:01.446Z,98629.02
2023-02-18T17:37:03.046Z,98624.11
2023-02-18T17:40:04.694Z,98624.60
2023-02-18T17:43:06.656Z,98626.27
2023-02-18T17:46:16.391Z,98626.61
2023-02-18T17:49:18.685Z,98620.04
2023-02-18T17:52:29.686Z,98617.42
2023-02-18T17:55:33.043Z,98619.33
2023-02-18T17:58:34.664Z,98626.48
2023-02-18T18:01:36.441Z,98619.92
2023-02-18T18:04:38.143Z,98617.09
2023-02-18T18:07:39.634Z,98611.98
2023-02-18T18:10:48.927Z,98616.30
2023-02-18T18:13:52.228Z,98616.03
2023-02-18T18:16:53.794Z,98623.09
2023-02-18T18:19:55.404Z,98618.40
2023-02-18T18:22:59.045Z,98619.54
2023-02-18T18:26:00.787Z,98625.72
2023-02-18T18:29:02.365Z,98626.70
2023-02-18T18:32:04.165Z,98635.88
2023-02-18T18:35:18.185Z,98627.27
2023-02-18T18:38:21.436Z,98626.86
2023-02-18T18:41:23.075Z,98633.88
2023-02-18T18:44:24.585Z,98628.69
2023-02-18T18:47:26.116Z,98636.92
2023-02-18T18:50:27.760Z,98638.55
2023-02-18T18:53:31.919Z,98635.73
2023-02-18T18:56:33.428Z,98644.83
2023-02-18T18:59:35.218Z,98657.54
2023-02-18T19:02:37.043Z,98654.30
2023-02-18T19:05:41.003Z,98659.23
2023-02-18T19:08:43.049Z,98656.09
2023-02-18T19:11:44.882Z,98660.60
2023-02-18T19:14:46.398Z,98662.70
2023-02-18T19:17:50.764Z,98658.04
2023-02-18T19:20:52.311Z,98667.36
2023-02-18T19:23:53.769Z,98663.47
2023-02-18T19:26:55.333Z,98662.91
2023-02-18T19:29:56.811Z,98668.95
2023-02-18T19:33:00.403Z,98675.97
2023-02-18T19:36:07.751Z,98689.33
2023-02-18T19:39:09.362Z,98689.21
2023-02-18T19:42:10.913Z,98694.06
2023-02-18T19:45:13.280Z,98690.65
2023-02-18T19:48:15.752Z,98695.27
2023-02-18T19:51:17.404Z,98695.98
2023-02-18T19:54:18.840Z,98698.69
2023-02-18T19:57:20.638Z,98707.58
2023-02-18T20:00:22.657Z,98709.75
2023-02-18T20:03:24.452Z,98723.66
2023-02-18T20:06:26.023Z,98730.02
2023-02-18T20:09:27.471Z,98735.67
2023-02-18T20:12:29.018Z,98737.77
2023-02-18T20:15:30.510Z,98735.73
2023-02-18T20:18:32.039Z,98738.22
2023-02-18T20:21:33.552Z,98738.48
2023-02-18T20:24:35.124Z,98746.10
2023-02-18T20:27:37.511Z,98755.91
2023-02-18T20:30:41.353Z,98763.27
2023-02-18T20:33:43.149Z,98773.25
2023-02-18T20:36:45.277Z,98779.27
2023-02-18T20:39:46.891Z,98788.52
2023-02-18T20:42:48.289Z,98790.41
2023-02-18T20:45:49.845Z,98806.64
2023-02-18T20:48:51.360Z,98810.84
2023-02-18T20:51:53.068Z,98815.47
2023-02-18T20:54:54.541Z,98810.99
2023-02-18T20:57:56.125Z,98816.58
2023-02-18T21:00:58.640Z,98819.36
2023-02-18T21:04:00.158Z,98819.52
2023-02-18T21:07:01.681Z,98824.98
2023-02-18T21:10:03.189Z,98830.81
2023-02-18T21:13:04.752Z,98822.06
2023-02-18T21:16:06.744Z,98821.16
2023-02-18T21:19:12.108Z,98829.72
2023-02-18T21:22:13.764Z,98841.72
2023-02-18T21:25:15.253Z,98840.27
2023-02-18T21:28:16.959Z,98841.94
2023-02-18T21:31:39.699Z,98846.06
2023-02-18T21:34:41.334Z,98849.87
2023-02-18T21:37:42.810Z,98853.08
2023-02-18T21:40:45.049Z,98860.84
2023-02-18T21:43:47.540Z,98869.56
2023-02-18T21:46:49.185Z,98874.27
2023-02-18T21:49:50.866Z,98880.31
2023-02-18T21:52:52.419Z,98882.45
2023-02-18T21:56:03.291Z,98882.08
2023-02-18T21:59:05.344Z,98887.40
2023-02-18T22:02:07.938Z,98892.26
2023-02-18T22:05:09.633Z,98896.65
2023-02-18T22:08:11.166Z,98912.94
2023-02-18T22:11:13.865Z,98911.94
2023-02-18T22:14:15.417Z,98908.60
2023-02-18T22:17:17.153Z,98914.48
2023-02-18T22:20:18.727Z,98920.87
2023-02-18T22:23:20.177Z,98928.02
2023-02-18T22:26:21.953Z,98935.02
2023-02-18T22:29:23.511Z,98936.69
2023-02-18T22:32:25.200Z,98940.16
2023-02-18T22:35:26.757Z,98946.58
2023-02-18T22:38:28.650Z,98953.52
2023-02-18T22:41:31.560Z,98952.26
2023-02-18T22:44:33.164Z,98965.39
2023-02-18T22:47:34.643Z,98976.79
2023-02-18T22:50:36.164Z,98977.20
2023-02-18T22:53:38.180Z,98979.52
2023-02-18T22:56:40.002Z,98985.02
2023-02-18T22:59:41.550Z,98988.27
2023-02-18T23:02:42.989Z,98993.40
2023-02-18T23:05:44.556Z,98982.05
2023-02-18T23:08:46.331Z,98985.78
2023-02-18T23:11:52.039Z,98987.80
2023-02-18T23:14:53.711Z,99003.04
2023-02-18T23:17:55.201Z,99009.52
2023-02-18T23:21:02.333Z,99013.36
2023-02-18T23:24:04.907Z,99021.44
2023-02-18T23:27:07.576Z,99032.05
2023-02-18T23:30:10.211Z,99035.89
2023-02-18T23:33:11.949Z,99038.49
2023-02-18T23:36:14.596Z,99045.65
2023-02-18T23:39:18.756Z,99047.35
2023-02-18T23:42:20.448Z,99060.16
2023-02-18T23:45:22.229Z,99066.52
2023-02-18T23:48:23.846Z,99071.34
2023-02-18T23:51:25.436Z,99064.46
2023-02-18T23:54:27.038Z,99060.84
2023-02-18T23:57:31.762Z,99070.52
